sensor_id;sensor_type;location;lat;lon;timestamp;P1;durP1;ratioP1;P2;durP2;ratioP2
982;SDS011;480;48.124;11.578;2023-02-15T00:02:06;23.63;;;12.53;;
982;SDS011;480;48.124;11.578;2023-02-15T00:04:47;16.20;;;10.47;;
982;SDS011;480;48.124;11.578;2023-02-15T00:07:17;18.40;;;10.97;;
982;SDS011;480;48.124;11.578;2023-02-15T00:09:45;28.47;;;11.83;;
982;SDS011;480;48.124;11.578;2023-02-15T00:12:13;25.13;;;11.07;;
982;SDS011;480;48.124;11.578;2023-02-15T00:14:42;15.33;;;9.03;;
982;SDS011;480;48.124;11.578;2023-02-15T00:17:10;12.73;;;9.50;;
982;SDS011;480;48.124;11.578;2023-02-15T00:19:37;16.30;;;6.77;;
982;SDS011;480;48.124;11.578;2023-02-15T00:22:06;14.17;;;12.87;;
982;SDS011;480;48.124;11.578;2023-02-15T00:24:37;9.00;;;7.23;;
982;SDS011;480;48.124;11.578;2023-02-15T00:27:05;15.90;;;8.47;;
982;SDS011;480;48.124;11.578;2023-02-15T00:29:34;14.67;;;8.23;;
982;SDS011;480;48.124;11.578;2023-02-15T00:32:01;14.37;;;9.67;;
982;SDS011;480;48.124;11.578;2023-02-15T00:34:29;20.83;;;10.33;;
982;SDS011;480;48.124;11.578;2023-02-15T00:36:56;13.87;;;9.67;;
982;SDS011;480;48.124;11.578;2023-02-15T00:39:26;12.97;;;7.00;;
982;SDS011;480;48.124;11.578;2023-02-15T00:41:56;15.97;;;8.30;;
982;SDS011;480;48.124;11.578;2023-02-15T00:44:24;14.67;;;9.50;;
982;SDS011;480;48.124;11.578;2023-02-15T00:46:51;16.53;;;9.20;;
982;SDS011;480;48.124;11.578;2023-02-15T00:49:19;29.33;;;11.13;;
982;SDS011;480;48.124;11.578;2023-02-15T00:51:46;13.43;;;9.20;;
982;SDS011;480;48.124;11.578;2023-02-15T00:54:14;18.13;;;12.93;;
982;SDS011;480;48.124;11.578;2023-02-15T00:56:43;21.80;;;10.23;;
982;SDS011;480;48.124;11.578;2023-02-15T00:59:12;9.47;;;7.27;;
982;SDS011;480;48.124;11.578;2023-02-15T01:01:40;8.40;;;6.70;;
982;SDS011;480;48.124;11.578;2023-02-15T01:04:14;13.30;;;8.30;;
982;SDS011;480;48.124;11.578;2023-02-15T01:06:45;14.70;;;10.60;;
982;SDS011;480;48.124;11.578;2023-02-15T01:09:13;15.90;;;10.17;;
982;SDS011;480;48.124;11.578;2023-02-15T01:11:42;8.80;;;7.90;;
982;SDS011;480;48.124;11.578;2023-02-15T01:14:25;15.83;;;9.13;;
982;SDS011;480;48.124;11.578;2023-02-15T01:17:06;15.47;;;8.77;;
982;SDS011;480;48.124;11.578;2023-02-15T01:19:41;13.10;;;7.77;;
982;SDS011;480;48.124;11.578;2023-02-15T01:22:09;11.40;;;9.20;;
982;SDS011;480;48.124;11.578;2023-02-15T01:24:38;10.67;;;9.23;;
982;SDS011;480;48.124;11.578;2023-02-15T01:27:08;13.37;;;6.80;;
982;SDS011;480;48.124;11.578;2023-02-15T01:29:53;12.53;;;8.10;;
982;SDS011;480;48.124;11.578;2023-02-15T01:32:35;10.00;;;6.87;;
982;SDS011;480;48.124;11.578;2023-02-15T01:35:03;8.67;;;7.63;;
982;SDS011;480;48.124;11.578;2023-02-15T01:37:33;14.23;;;10.20;;
982;SDS011;480;48.124;11.578;2023-02-15T01:40:04;10.10;;;8.40;;
982;SDS011;480;48.124;11.578;2023-02-15T01:42:38;10.37;;;6.87;;
982;SDS011;480;48.124;11.578;2023-02-15T01:45:16;12.07;;;6.07;;
982;SDS011;480;48.124;11.578;2023-02-15T01:47:50;13.97;;;8.10;;
982;SDS011;480;48.124;11.578;2023-02-15T01:50:33;9.87;;;7.90;;
982;SDS011;480;48.124;11.578;2023-02-15T01:53:08;12.13;;;7.80;;
982;SDS011;480;48.124;11.578;2023-02-15T01:55:41;11.43;;;7.83;;
982;SDS011;480;48.124;11.578;2023-02-15T01:58:20;19.63;;;5.40;;
982;SDS011;480;48.124;11.578;2023-02-15T02:03:38;9.97;;;7.30;;
982;SDS011;480;48.124;11.578;2023-02-15T02:06:14;17.93;;;8.93;;
982;SDS011;480;48.124;11.578;2023-02-15T02:08:46;10.20;;;7.23;;
982;SDS011;480;48.124;11.578;2023-02-15T02:11:14;13.23;;;7.70;;
982;SDS011;480;48.124;11.578;2023-02-15T02:13:45;11.37;;;8.20;;
982;SDS011;480;48.124;11.578;2023-02-15T02:16:17;12.47;;;9.10;;
982;SDS011;480;48.124;11.578;2023-02-15T02:18:57;9.30;;;6.23;;
982;SDS011;480;48.124;11.578;2023-02-15T02:25:23;10.53;;;6.43;;
982;SDS011;480;48.124;11.578;2023-02-15T02:28:22;23.37;;;9.10;;
982;SDS011;480;48.124;11.578;2023-02-15T02:34:11;6.40;;;4.90;;
982;SDS011;480;48.124;11.578;2023-02-15T02:36:45;11.87;;;5.83;;
982;SDS011;480;48.124;11.578;2023-02-15T02:39:23;13.17;;;9.17;;
982;SDS011;480;48.124;11.578;2023-02-15T02:42:01;14.30;;;7.73;;
982;SDS011;480;48.124;11.578;2023-02-15T02:44:35;21.57;;;10.20;;
982;SDS011;480;48.124;11.578;2023-02-15T02:47:15;8.60;;;7.83;;
982;SDS011;480;48.124;11.578;2023-02-15T02:49:51;10.70;;;8.67;;
982;SDS011;480;48.124;11.578;2023-02-15T02:52:37;7.60;;;6.80;;
982;SDS011;480;48.124;11.578;2023-02-15T02:55:08;14.67;;;9.60;;
982;SDS011;480;48.124;11.578;2023-02-15T02:57:42;6.80;;;6.10;;
982;SDS011;480;48.124;11.578;2023-02-15T03:00:13;11.30;;;7.40;;
982;SDS011;480;48.124;11.578;2023-02-15T03:02:44;13.20;;;6.50;;
982;SDS011;480;48.124;11.578;2023-02-15T03:05:27;11.83;;;7.60;;
982;SDS011;480;48.124;11.578;2023-02-15T03:07:58;16.23;;;7.47;;
982;SDS011;480;48.124;11.578;2023-02-15T03:10:31;9.47;;;6.60;;
982;SDS011;480;48.124;11.578;2023-02-15T03:13:01;11.50;;;7.53;;
982;SDS011;480;48.124;11.578;2023-02-15T03:15:30;11.20;;;7.13;;
982;SDS011;480;48.124;11.578;2023-02-15T03:18:14;10.87;;;8.60;;
982;SDS011;480;48.124;11.578;2023-02-15T03:20:48;7.27;;;5.87;;
982;SDS011;480;48.124;11.578;2023-02-15T03:23:18;7.93;;;5.90;;
982;SDS011;480;48.124;11.578;2023-02-15T03:25:50;8.37;;;7.57;;
982;SDS011;480;48.124;11.578;2023-02-15T03:28:20;8.63;;;7.73;;
982;SDS011;480;48.124;11.578;2023-02-15T03:30:52;11.90;;;7.47;;
982;SDS011;480;48.124;11.578;2023-02-15T03:33:24;8.40;;;7.43;;
982;SDS011;480;48.124;11.578;2023-02-15T03:35:57;10.60;;;7.40;;
982;SDS011;480;48.124;11.578;2023-02-15T03:38:29;16.37;;;8.50;;
982;SDS011;480;48.124;11.578;2023-02-15T03:41:02;8.50;;;6.27;;
982;SDS011;480;48.124;11.578;2023-02-15T03:43:37;10.00;;;7.93;;
982;SDS011;480;48.124;11.578;2023-02-15T03:46:12;11.43;;;7.73;;
982;SDS011;480;48.124;11.578;2023-02-15T03:48:45;10.37;;;6.83;;
982;SDS011;480;48.124;11.578;2023-02-15T03:51:19;8.63;;;7.70;;
982;SDS011;480;48.124;11.578;2023-02-15T03:54:04;9.60;;;6.30;;
982;SDS011;480;48.124;11.578;2023-02-15T03:56:35;11.23;;;7.20;;
982;SDS011;480;48.124;11.578;2023-02-15T03:59:04;11.17;;;6.57;;
982;SDS011;480;48.124;11.578;2023-02-15T04:01:52;19.90;;;7.23;;
982;SDS011;480;48.124;11.578;2023-02-15T04:04:33;6.83;;;6.13;;
982;SDS011;480;48.124;11.578;2023-02-15T04:07:03;7.00;;;6.10;;
982;SDS011;480;48.124;11.578;2023-02-15T04:09:33;8.20;;;6.93;;
982;SDS011;480;48.124;11.578;2023-02-15T04:12:18;14.23;;;6.13;;
982;SDS011;480;48.124;11.578;2023-02-15T04:14:46;8.53;;;7.53;;
982;SDS011;480;48.124;11.578;2023-02-15T04:17:31;13.23;;;6.93;;
982;SDS011;480;48.124;11.578;2023-02-15T04:19:58;18.37;;;8.50;;
982;SDS011;480;48.124;11.578;2023-02-15T04:22:44;7.70;;;6.33;;
982;SDS011;480;48.124;11.578;2023-02-15T04:25:28;8.97;;;6.27;;
982;SDS011;480;48.124;11.578;2023-02-15T04:27:55;8.60;;;6.60;;
982;SDS011;480;48.124;11.578;2023-02-15T04:30:22;14.33;;;7.47;;
982;SDS011;480;48.124;11.578;2023-02-15T04:32:51;15.27;;;7.93;;
982;SDS011;480;48.124;11.578;2023-02-15T04:35:20;7.67;;;6.90;;
982;SDS011;480;48.124;11.578;2023-02-15T04:37:49;10.47;;;8.70;;
982;SDS011;480;48.124;11.578;2023-02-15T04:40:17;6.57;;;5.97;;
982;SDS011;480;48.124;11.578;2023-02-15T04:42:46;8.27;;;6.40;;
982;SDS011;480;48.124;11.578;2023-02-15T04:45:14;10.00;;;7.87;;
982;SDS011;480;48.124;11.578;2023-02-15T04:47:42;17.33;;;10.50;;
982;SDS011;480;48.124;11.578;2023-02-15T04:50:09;12.53;;;7.93;;
982;SDS011;480;48.124;11.578;2023-02-15T04:52:36;10.93;;;8.83;;
982;SDS011;480;48.124;11.578;2023-02-15T04:55:06;6.87;;;6.17;;
982;SDS011;480;48.124;11.578;2023-02-15T04:57:33;13.40;;;8.77;;
982;SDS011;480;48.124;11.578;2023-02-15T05:00:02;9.63;;;8.73;;
982;SDS011;480;48.124;11.578;2023-02-15T05:02:29;12.20;;;7.20;;
982;SDS011;480;48.124;11.578;2023-02-15T05:04:56;10.13;;;7.13;;
982;SDS011;480;48.124;11.578;2023-02-15T05:07:24;10.80;;;8.47;;
982;SDS011;480;48.124;11.578;2023-02-15T05:09:51;10.50;;;6.13;;
982;SDS011;480;48.124;11.578;2023-02-15T05:12:20;9.03;;;6.47;;
982;SDS011;480;48.124;11.578;2023-02-15T05:14:47;14.40;;;7.00;;
982;SDS011;480;48.124;11.578;2023-02-15T05:17:14;6.90;;;6.20;;
982;SDS011;480;48.124;11.578;2023-02-15T05:19:41;7.50;;;6.80;;
982;SDS011;480;48.124;11.578;2023-02-15T05:22:08;14.13;;;7.43;;
982;SDS011;480;48.124;11.578;2023-02-15T05:24:35;12.03;;;8.10;;
982;SDS011;480;48.124;11.578;2023-02-15T05:27:21;9.50;;;8.27;;
982;SDS011;480;48.124;11.578;2023-02-15T05:30:07;11.23;;;7.47;;
982;SDS011;480;48.124;11.578;2023-02-15T05:32:36;19.53;;;6.90;;
982;SDS011;480;48.124;11.578;2023-02-15T05:35:04;10.93;;;6.30;;
982;SDS011;480;48.124;11.578;2023-02-15T05:37:31;7.87;;;6.47;;
982;SDS011;480;48.124;11.578;2023-02-15T05:39:58;8.90;;;7.40;;
982;SDS011;480;48.124;11.578;2023-02-15T05:42:28;12.23;;;5.87;;
982;SDS011;480;48.124;11.578;2023-02-15T05:44:55;19.00;;;6.90;;
982;SDS011;480;48.124;11.578;2023-02-15T05:47:23;10.10;;;6.97;;
982;SDS011;480;48.124;11.578;2023-02-15T05:49:50;10.27;;;6.60;;
982;SDS011;480;48.124;11.578;2023-02-15T05:52:17;7.53;;;6.43;;
982;SDS011;480;48.124;11.578;2023-02-15T05:54:44;8.60;;;7.00;;
982;SDS011;480;48.124;11.578;2023-02-15T05:57:11;10.23;;;6.20;;
982;SDS011;480;48.124;11.578;2023-02-15T05:59:40;8.10;;;7.30;;
982;SDS011;480;48.124;11.578;2023-02-15T06:02:07;8.53;;;7.23;;
982;SDS011;480;48.124;11.578;2023-02-15T06:04:34;9.50;;;8.27;;
982;SDS011;480;48.124;11.578;2023-02-15T06:07:01;6.13;;;5.10;;
982;SDS011;480;48.124;11.578;2023-02-15T06:09:28;7.23;;;6.57;;
982;SDS011;480;48.124;11.578;2023-02-15T06:11:56;13.20;;;8.10;;
982;SDS011;480;48.124;11.578;2023-02-15T06:14:23;11.30;;;7.07;;
982;SDS011;480;48.124;11.578;2023-02-15T06:16:52;14.40;;;8.90;;
982;SDS011;480;48.124;11.578;2023-02-15T06:19:19;8.93;;;7.60;;
982;SDS011;480;48.124;11.578;2023-02-15T06:21:47;9.40;;;8.57;;
982;SDS011;480;48.124;11.578;2023-02-15T06:24:14;16.07;;;8.33;;
982;SDS011;480;48.124;11.578;2023-02-15T06:26:41;9.17;;;7.23;;
982;SDS011;480;48.124;11.578;2023-02-15T06:29:09;10.83;;;8.17;;
982;SDS011;480;48.124;11.578;2023-02-15T06:31:36;10.30;;;8.10;;
982;SDS011;480;48.124;11.578;2023-02-15T06:34:05;11.83;;;7.53;;
982;SDS011;480;48.124;11.578;2023-02-15T06:36:32;10.70;;;7.07;;
982;SDS011;480;48.124;11.578;2023-02-15T06:38:59;10.17;;;6.73;;
982;SDS011;480;48.124;11.578;2023-02-15T06:41:27;10.10;;;6.70;;
982;SDS011;480;48.124;11.578;2023-02-15T06:43:54;10.37;;;7.17;;
982;SDS011;480;48.124;11.578;2023-02-15T06:46:21;15.97;;;8.30;;
982;SDS011;480;48.124;11.578;2023-02-15T06:48:48;9.27;;;8.10;;
982;SDS011;480;48.124;11.578;2023-02-15T06:51:16;12.13;;;8.50;;
982;SDS011;480;48.124;11.578;2023-02-15T06:53:43;8.13;;;6.00;;
982;SDS011;480;48.124;11.578;2023-02-15T06:56:10;9.80;;;8.00;;
982;SDS011;480;48.124;11.578;2023-02-15T06:58:38;12.07;;;7.70;;
982;SDS011;480;48.124;11.578;2023-02-15T07:01:06;8.07;;;7.37;;
982;SDS011;480;48.124;11.578;2023-02-15T07:03:34;8.13;;;7.30;;
982;SDS011;480;48.124;11.578;2023-02-15T07:06:02;9.93;;;6.40;;
982;SDS011;480;48.124;11.578;2023-02-15T07:08:34;8.13;;;6.47;;
982;SDS011;480;48.124;11.578;2023-02-15T07:11:02;10.70;;;7.83;;
982;SDS011;480;48.124;11.578;2023-02-15T07:13:47;8.03;;;6.80;;
982;SDS011;480;48.124;11.578;2023-02-15T07:16:14;9.67;;;7.27;;
982;SDS011;480;48.124;11.578;2023-02-15T07:18:41;10.00;;;7.57;;
982;SDS011;480;48.124;11.578;2023-02-15T07:21:08;14.00;;;7.17;;
982;SDS011;480;48.124;11.578;2023-02-15T07:23:37;12.97;;;8.30;;
982;SDS011;480;48.124;11.578;2023-02-15T07:26:06;9.57;;;8.13;;
982;SDS011;480;48.124;11.578;2023-02-15T07:28:34;14.63;;;8.50;;
982;SDS011;480;48.124;11.578;2023-02-15T07:31:01;14.67;;;9.00;;
982;SDS011;480;48.124;11.578;2023-02-15T07:33:29;13.37;;;9.50;;
982;SDS011;480;48.124;11.578;2023-02-15T07:35:57;12.83;;;8.77;;
982;SDS011;480;48.124;11.578;2023-02-15T07:38:26;15.43;;;9.50;;
982;SDS011;480;48.124;11.578;2023-02-15T07:40:58;10.13;;;8.47;;
982;SDS011;480;48.124;11.578;2023-02-15T07:43:26;17.73;;;9.83;;
982;SDS011;480;48.124;11.578;2023-02-15T07:45:54;7.77;;;6.17;;
982;SDS011;480;48.124;11.578;2023-02-15T07:48:24;9.30;;;8.20;;
982;SDS011;480;48.124;11.578;2023-02-15T07:50:51;10.10;;;7.70;;
982;SDS011;480;48.124;11.578;2023-02-15T07:53:19;11.47;;;7.47;;
982;SDS011;480;48.124;11.578;2023-02-15T07:55:46;15.53;;;7.03;;
982;SDS011;480;48.124;11.578;2023-02-15T07:58:15;10.10;;;8.57;;
982;SDS011;480;48.124;11.578;2023-02-15T08:00:42;11.87;;;9.53;;
982;SDS011;480;48.124;11.578;2023-02-15T08:03:29;8.90;;;6.70;;
982;SDS011;480;48.124;11.578;2023-02-15T08:05:57;11.07;;;9.10;;
982;SDS011;480;48.124;11.578;2023-02-15T08:08:25;20.67;;;10.93;;
982;SDS011;480;48.124;11.578;2023-02-15T08:10:59;10.67;;;7.90;;
982;SDS011;480;48.124;11.578;2023-02-15T08:13:47;13.70;;;10.13;;
982;SDS011;480;48.124;11.578;2023-02-15T08:16:23;12.80;;;6.77;;
982;SDS011;480;48.124;11.578;2023-02-15T08:18:50;8.50;;;7.00;;
982;SDS011;480;48.124;11.578;2023-02-15T08:21:19;11.97;;;8.83;;
982;SDS011;480;48.124;11.578;2023-02-15T08:23:46;9.73;;;6.10;;
982;SDS011;480;48.124;11.578;2023-02-15T08:26:14;13.53;;;10.27;;
982;SDS011;480;48.124;11.578;2023-02-15T08:28:42;12.13;;;8.87;;
982;SDS011;480;48.124;11.578;2023-02-15T08:31:11;16.40;;;11.43;;
982;SDS011;480;48.124;11.578;2023-02-15T08:33:39;14.77;;;8.57;;
982;SDS011;480;48.124;11.578;2023-02-15T08:36:09;11.97;;;9.67;;
982;SDS011;480;48.124;11.578;2023-02-15T08:38:39;17.23;;;11.30;;
982;SDS011;480;48.124;11.578;2023-02-15T08:41:14;13.67;;;7.73;;
982;SDS011;480;48.124;11.578;2023-02-15T08:43:44;14.70;;;9.83;;
982;SDS011;480;48.124;11.578;2023-02-15T08:46:14;15.23;;;11.97;;
982;SDS011;480;48.124;11.578;2023-02-15T08:48:42;16.50;;;9.77;;
982;SDS011;480;48.124;11.578;2023-02-15T08:51:10;10.87;;;9.30;;
982;SDS011;480;48.124;11.578;2023-02-15T08:53:39;11.37;;;7.60;;
982;SDS011;480;48.124;11.578;2023-02-15T08:56:09;16.33;;;8.80;;
982;SDS011;480;48.124;11.578;2023-02-15T08:58:36;13.63;;;8.07;;
982;SDS011;480;48.124;11.578;2023-02-15T09:01:10;16.90;;;9.03;;
982;SDS011;480;48.124;11.578;2023-02-15T09:03:40;20.67;;;10.50;;
982;SDS011;480;48.124;11.578;2023-02-15T09:06:07;17.63;;;11.30;;
982;SDS011;480;48.124;11.578;2023-02-15T09:08:36;12.30;;;10.50;;
982;SDS011;480;48.124;11.578;2023-02-15T09:11:04;23.33;;;9.83;;
982;SDS011;480;48.124;11.578;2023-02-15T09:13:33;15.30;;;10.33;;
982;SDS011;480;48.124;11.578;2023-02-15T09:16:02;14.60;;;10.30;;
982;SDS011;480;48.124;11.578;2023-02-15T09:18:31;14.37;;;9.50;;
982;SDS011;480;48.124;11.578;2023-02-15T09:21:05;10.93;;;9.80;;
982;SDS011;480;48.124;11.578;2023-02-15T09:23:33;13.80;;;9.30;;
982;SDS011;480;48.124;11.578;2023-02-15T09:26:05;14.37;;;10.47;;
982;SDS011;480;48.124;11.578;2023-02-15T09:28:33;21.13;;;9.50;;
982;SDS011;480;48.124;11.578;2023-02-15T09:31:04;12.23;;;9.73;;
982;SDS011;480;48.124;11.578;2023-02-15T09:33:36;10.67;;;9.17;;
982;SDS011;480;48.124;11.578;2023-02-15T09:36:14;10.23;;;9.23;;
982;SDS011;480;48.124;11.578;2023-02-15T09:38:43;12.97;;;9.43;;
982;SDS011;480;48.124;11.578;2023-02-15T09:41:23;13.27;;;11.80;;
982;SDS011;480;48.124;11.578;2023-02-15T09:44:12;10.47;;;9.33;;
982;SDS011;480;48.124;11.578;2023-02-15T09:46:51;12.50;;;9.80;;
982;SDS011;480;48.124;11.578;2023-02-15T09:49:31;17.20;;;10.80;;
982;SDS011;480;48.124;11.578;2023-02-15T09:52:21;16.30;;;9.93;;
982;SDS011;480;48.124;11.578;2023-02-15T09:55:14;12.00;;;9.30;;
982;SDS011;480;48.124;11.578;2023-02-15T09:58:04;14.80;;;10.13;;
982;SDS011;480;48.124;11.578;2023-02-15T10:00:40;12.63;;;9.57;;
982;SDS011;480;48.124;11.578;2023-02-15T10:03:22;12.43;;;8.47;;
982;SDS011;480;48.124;11.578;2023-02-15T10:06:11;12.13;;;10.23;;
982;SDS011;480;48.124;11.578;2023-02-15T10:08:59;15.20;;;9.87;;
982;SDS011;480;48.124;11.578;2023-02-15T10:11:50;12.70;;;9.33;;
982;SDS011;480;48.124;11.578;2023-02-15T10:14:34;11.73;;;10.10;;
982;SDS011;480;48.124;11.578;2023-02-15T10:17:15;14.47;;;9.70;;
982;SDS011;480;48.124;11.578;2023-02-15T10:19:54;11.73;;;10.53;;
982;SDS011;480;48.124;11.578;2023-02-15T10:22:37;9.37;;;8.10;;
982;SDS011;480;48.124;11.578;2023-02-15T10:25:22;9.63;;;7.83;;
982;SDS011;480;48.124;11.578;2023-02-15T10:27:57;13.40;;;8.97;;
982;SDS011;480;48.124;11.578;2023-02-15T10:30:32;13.97;;;9.10;;
982;SDS011;480;48.124;11.578;2023-02-15T10:33:09;11.87;;;9.33;;
982;SDS011;480;48.124;11.578;2023-02-15T10:35:49;13.33;;;10.37;;
982;SDS011;480;48.124;11.578;2023-02-15T10:38:25;12.40;;;9.93;;
982;SDS011;480;48.124;11.578;2023-02-15T10:41:03;11.40;;;9.00;;
982;SDS011;480;48.124;11.578;2023-02-15T10:43:45;12.00;;;9.90;;
982;SDS011;480;48.124;11.578;2023-02-15T10:46:26;10.47;;;8.87;;
982;SDS011;480;48.124;11.578;2023-02-15T10:52:22;12.03;;;9.83;;
982;SDS011;480;48.124;11.578;2023-02-15T10:54:58;13.47;;;10.33;;
982;SDS011;480;48.124;11.578;2023-02-15T10:57:36;12.03;;;10.00;;
982;SDS011;480;48.124;11.578;2023-02-15T11:00:13;11.57;;;10.43;;
982;SDS011;480;48.124;11.578;2023-02-15T11:02:58;10.17;;;9.13;;
982;SDS011;480;48.124;11.578;2023-02-15T11:05:38;11.30;;;10.13;;
982;SDS011;480;48.124;11.578;2023-02-15T11:08:14;12.23;;;10.80;;
982;SDS011;480;48.124;11.578;2023-02-15T11:10:45;18.47;;;11.00;;
982;SDS011;480;48.124;11.578;2023-02-15T11:13:20;14.90;;;10.30;;
982;SDS011;480;48.124;11.578;2023-02-15T11:15:53;10.83;;;8.90;;
982;SDS011;480;48.124;11.578;2023-02-15T11:18:25;13.13;;;9.60;;
982;SDS011;480;48.124;11.578;2023-02-15T11:20:59;10.80;;;9.60;;
982;SDS011;480;48.124;11.578;2023-02-15T11:23:30;14.17;;;10.13;;
982;SDS011;480;48.124;11.578;2023-02-15T11:26:02;14.40;;;10.73;;
982;SDS011;480;48.124;11.578;2023-02-15T11:28:33;15.43;;;10.37;;
982;SDS011;480;48.124;11.578;2023-02-15T11:31:11;13.27;;;10.43;;
982;SDS011;480;48.124;11.578;2023-02-15T11:33:44;14.73;;;11.20;;
982;SDS011;480;48.124;11.578;2023-02-15T11:36:15;15.03;;;9.63;;
982;SDS011;480;48.124;11.578;2023-02-15T11:38:47;12.27;;;10.37;;
982;SDS011;480;48.124;11.578;2023-02-15T11:41:19;13.20;;;11.13;;
982;SDS011;480;48.124;11.578;2023-02-15T11:43:53;14.30;;;11.23;;
982;SDS011;480;48.124;11.578;2023-02-15T11:46:24;12.47;;;9.87;;
982;SDS011;480;48.124;11.578;2023-02-15T11:48:52;14.20;;;11.43;;
982;SDS011;480;48.124;11.578;2023-02-15T11:51:20;18.57;;;12.27;;
982;SDS011;480;48.124;11.578;2023-02-15T11:53:49;12.33;;;10.33;;
982;SDS011;480;48.124;11.578;2023-02-15T11:56:21;18.70;;;11.07;;
982;SDS011;480;48.124;11.578;2023-02-15T11:58:53;13.40;;;11.30;;
982;SDS011;480;48.124;11.578;2023-02-15T12:01:28;12.97;;;11.57;;
982;SDS011;480;48.124;11.578;2023-02-15T12:04:04;12.27;;;11.00;;
982;SDS011;480;48.124;11.578;2023-02-15T12:06:37;11.93;;;10.70;;
982;SDS011;480;48.124;11.578;2023-02-15T12:09:16;15.87;;;12.53;;
982;SDS011;480;48.124;11.578;2023-02-15T12:11:47;13.77;;;12.20;;
982;SDS011;480;48.124;11.578;2023-02-15T12:14:15;17.17;;;12.00;;
982;SDS011;480;48.124;11.578;2023-02-15T12:16:44;15.43;;;11.80;;
982;SDS011;480;48.124;11.578;2023-02-15T12:19:17;14.20;;;11.80;;
982;SDS011;480;48.124;11.578;2023-02-15T12:21:54;16.60;;;11.97;;
982;SDS011;480;48.124;11.578;2023-02-15T12:24:27;14.90;;;11.97;;
982;SDS011;480;48.124;11.578;2023-02-15T12:26:58;12.43;;;11.00;;
982;SDS011;480;48.124;11.578;2023-02-15T12:29:31;16.07;;;11.80;;
982;SDS011;480;48.124;11.578;2023-02-15T12:32:18;13.97;;;12.37;;
982;SDS011;480;48.124;11.578;2023-02-15T12:34:49;12.83;;;11.53;;
982;SDS011;480;48.124;11.578;2023-02-15T12:37:34;14.57;;;12.10;;
982;SDS011;480;48.124;11.578;2023-02-15T12:40:18;13.47;;;12.13;;
982;SDS011;480;48.124;11.578;2023-02-15T12:42:54;12.60;;;10.97;;
982;SDS011;480;48.124;11.578;2023-02-15T12:45:38;17.70;;;13.10;;
982;SDS011;480;48.124;11.578;2023-02-15T12:48:12;13.40;;;11.37;;
982;SDS011;480;48.124;11.578;2023-02-15T12:50:47;15.47;;;10.00;;
982;SDS011;480;48.124;11.578;2023-02-15T12:53:34;14.73;;;11.40;;
982;SDS011;480;48.124;11.578;2023-02-15T12:56:10;13.53;;;10.97;;
982;SDS011;480;48.124;11.578;2023-02-15T12:58:40;16.27;;;9.97;;
982;SDS011;480;48.124;11.578;2023-02-15T13:01:23;12.50;;;11.20;;
982;SDS011;480;48.124;11.578;2023-02-15T13:03:55;16.70;;;10.90;;
982;SDS011;480;48.124;11.578;2023-02-15T13:06:26;14.00;;;11.63;;
982;SDS011;480;48.124;11.578;2023-02-15T13:08:58;13.43;;;10.23;;
982;SDS011;480;48.124;11.578;2023-02-15T13:11:34;11.17;;;10.00;;
982;SDS011;480;48.124;11.578;2023-02-15T13:14:03;19.43;;;10.17;;
982;SDS011;480;48.124;11.578;2023-02-15T13:16:45;12.77;;;10.07;;
982;SDS011;480;48.124;11.578;2023-02-15T13:19:15;12.87;;;8.57;;
982;SDS011;480;48.124;11.578;2023-02-15T13:21:47;12.23;;;10.37;;
982;SDS011;480;48.124;11.578;2023-02-15T13:24:17;10.73;;;8.80;;
982;SDS011;480;48.124;11.578;2023-02-15T13:26:49;12.33;;;11.03;;
982;SDS011;480;48.124;11.578;2023-02-15T13:29:18;12.90;;;11.60;;
982;SDS011;480;48.124;11.578;2023-02-15T13:31:52;13.43;;;10.27;;
982;SDS011;480;48.124;11.578;2023-02-15T13:34:23;10.90;;;9.80;;
982;SDS011;480;48.124;11.578;2023-02-15T13:36:55;11.30;;;9.63;;
982;SDS011;480;48.124;11.578;2023-02-15T13:39:29;13.53;;;10.90;;
982;SDS011;480;48.124;11.578;2023-02-15T13:42:05;11.60;;;9.93;;
982;SDS011;480;48.124;11.578;2023-02-15T13:44:51;11.87;;;10.53;;
982;SDS011;480;48.124;11.578;2023-02-15T13:47:32;11.77;;;9.87;;
982;SDS011;480;48.124;11.578;2023-02-15T13:50:16;12.97;;;9.37;;
982;SDS011;480;48.124;11.578;2023-02-15T13:52:57;17.70;;;10.33;;
982;SDS011;480;48.124;11.578;2023-02-15T13:55:38;11.60;;;9.37;;
982;SDS011;480;48.124;11.578;2023-02-15T13:58:23;11.73;;;9.70;;
982;SDS011;480;48.124;11.578;2023-02-15T14:01:04;13.00;;;10.87;;
982;SDS011;480;48.124;11.578;2023-02-15T14:10:00;12.20;;;10.97;;
982;SDS011;480;48.124;11.578;2023-02-15T14:12:46;13.13;;;9.70;;
982;SDS011;480;48.124;11.578;2023-02-15T14:15:26;12.33;;;9.63;;
982;SDS011;480;48.124;11.578;2023-02-15T14:18:03;13.17;;;9.20;;
982;SDS011;480;48.124;11.578;2023-02-15T14:20:45;11.90;;;9.03;;
982;SDS011;480;48.124;11.578;2023-02-15T14:23:23;11.80;;;9.00;;
982;SDS011;480;48.124;11.578;2023-02-15T14:26:02;11.17;;;10.00;;
982;SDS011;480;48.124;11.578;2023-02-15T14:28:37;14.47;;;10.33;;
982;SDS011;480;48.124;11.578;2023-02-15T14:31:11;15.63;;;11.97;;
982;SDS011;480;48.124;11.578;2023-02-15T14:33:40;13.37;;;10.13;;
982;SDS011;480;48.124;11.578;2023-02-15T14:36:15;14.27;;;9.23;;
982;SDS011;480;48.124;11.578;2023-02-15T14:38:55;10.17;;;8.97;;
982;SDS011;480;48.124;11.578;2023-02-15T14:41:31;9.97;;;8.97;;
982;SDS011;480;48.124;11.578;2023-02-15T14:44:05;12.27;;;9.50;;
982;SDS011;480;48.124;11.578;2023-02-15T14:46:41;15.70;;;9.70;;
982;SDS011;480;48.124;11.578;2023-02-15T14:49:13;10.50;;;9.20;;
982;SDS011;480;48.124;11.578;2023-02-15T14:52:00;11.83;;;10.03;;
982;SDS011;480;48.124;11.578;2023-02-15T14:57:31;11.00;;;9.90;;
982;SDS011;480;48.124;11.578;2023-02-15T15:00:01;12.60;;;9.53;;
982;SDS011;480;48.124;11.578;2023-02-15T15:02:49;12.27;;;9.53;;
982;SDS011;480;48.124;11.578;2023-02-15T15:05:20;11.03;;;9.77;;
982;SDS011;480;48.124;11.578;2023-02-15T15:08:04;12.27;;;9.90;;
982;SDS011;480;48.124;11.578;2023-02-15T15:10:43;14.43;;;9.07;;
982;SDS011;480;48.124;11.578;2023-02-15T15:18:58;12.67;;;10.20;;
982;SDS011;480;48.124;11.578;2023-02-15T15:37:23;12.73;;;10.10;;
982;SDS011;480;48.124;11.578;2023-02-15T15:40:46;11.37;;;9.57;;
982;SDS011;480;48.124;11.578;2023-02-15T15:52:39;13.03;;;10.97;;
982;SDS011;480;48.124;11.578;2023-02-15T15:55:25;14.93;;;11.73;;
982;SDS011;480;48.124;11.578;2023-02-15T15:58:10;13.47;;;10.33;;
982;SDS011;480;48.124;11.578;2023-02-15T16:00:46;17.60;;;10.30;;
982;SDS011;480;48.124;11.578;2023-02-15T16:03:20;13.00;;;8.70;;
982;SDS011;480;48.124;11.578;2023-02-15T16:05:52;12.40;;;10.40;;
982;SDS011;480;48.124;11.578;2023-02-15T16:08:28;16.83;;;12.30;;
982;SDS011;480;48.124;11.578;2023-02-15T16:10:57;15.90;;;10.30;;
982;SDS011;480;48.124;11.578;2023-02-15T16:13:29;15.67;;;11.97;;
982;SDS011;480;48.124;11.578;2023-02-15T16:15:57;14.50;;;11.00;;
982;SDS011;480;48.124;11.578;2023-02-15T16:18:29;14.00;;;10.90;;
982;SDS011;480;48.124;11.578;2023-02-15T16:21:16;11.63;;;10.20;;
982;SDS011;480;48.124;11.578;2023-02-15T16:23:59;18.37;;;11.70;;
982;SDS011;480;48.124;11.578;2023-02-15T16:26:54;12.93;;;10.00;;
982;SDS011;480;48.124;11.578;2023-02-15T16:29:38;15.30;;;11.40;;
982;SDS011;480;48.124;11.578;2023-02-15T16:32:19;15.83;;;10.40;;
982;SDS011;480;48.124;11.578;2023-02-15T16:34:51;13.77;;;11.40;;
982;SDS011;480;48.124;11.578;2023-02-15T16:37:22;13.53;;;11.10;;
982;SDS011;480;48.124;11.578;2023-02-15T16:39:54;13.03;;;11.63;;
982;SDS011;480;48.124;11.578;2023-02-15T16:42:27;12.17;;;10.87;;
982;SDS011;480;48.124;11.578;2023-02-15T16:45:15;18.80;;;13.80;;